createdAt,value
2022-09-28T00:01:44.557Z,12.40
2022-09-28T00:04:12.074Z,13.90
2022-09-28T00:06:38.940Z,22.10
2022-09-28T00:09:05.425Z,11.35
2022-09-28T00:11:31.809Z,14.27
2022-09-28T00:14:02.377Z,13.23
2022-09-28T00:16:35.503Z,17.70
2022-09-28T00:19:02.949Z,15.95
2022-09-28T00:21:31.469Z,16.48
2022-09-28T00:24:18.231Z,17.13
2022-09-28T00:26:54.057Z,16.88
2022-09-28T00:29:34.731Z,20.83
2022-09-28T00:32:03.479Z,17.35
2022-09-28T00:34:31.904Z,21.42
2022-09-28T00:36:59.477Z,17.83
2022-09-28T00:39:27.062Z,18.40
2022-09-28T00:41:54.274Z,18.33
2022-09-28T00:44:26.629Z,20.45
2022-09-28T00:46:56.669Z,20.23
2022-09-28T00:49:32.525Z,17.88
2022-09-28T00:51:59.492Z,18.85
2022-09-28T00:54:26.026Z,17.45
2022-09-28T00:56:52.535Z,19.90
2022-09-28T00:59:18.937Z,26.25
2022-09-28T01:01:45.464Z,18.70
2022-09-28T01:04:12.280Z,19.25
2022-09-28T01:06:39.009Z,23.48
2022-09-28T01:09:07.879Z,21.63
2022-09-28T01:11:37.524Z,20.33
2022-09-28T01:14:06.807Z,23.23
2022-09-28T01:16:59.603Z,20.30
2022-09-28T01:19:44.343Z,22.55
2022-09-28T01:22:32.050Z,20.67
2022-09-28T01:25:10.769Z,21.25
2022-09-28T01:27:37.072Z,22.80
2022-09-28T01:30:04.778Z,26.05
2022-09-28T01:32:57.342Z,19.40
2022-09-28T01:35:28.393Z,21.08
2022-09-28T01:40:23.079Z,22.00
2022-09-28T01:42:53.861Z,21.10
2022-09-28T01:45:24.698Z,23.70
2022-09-28T01:47:51.463Z,22.98
2022-09-28T01:50:21.032Z,23.95
2022-09-28T01:52:52.686Z,27.30
2022-09-28T01:55:26.108Z,22.00
2022-09-28T01:57:56.717Z,21.83
2022-09-28T02:00:24.338Z,23.52
2022-09-28T02:03:02.399Z,20.45
2022-09-28T02:05:28.679Z,25.95
2022-09-28T02:08:09.628Z,27.25
2022-09-28T02:10:44.263Z,29.33
2022-09-28T02:13:23.475Z,29.15
2022-09-28T02:16:00.110Z,31.05
2022-09-28T02:18:26.547Z,29.25
2022-09-28T02:21:00.787Z,30.95
2022-09-28T02:23:29.238Z,28.08
2022-09-28T02:26:08.009Z,28.42
2022-09-28T02:28:34.475Z,29.80
2022-09-28T02:31:00.941Z,34.78
2022-09-28T02:33:36.940Z,31.02
2022-09-28T02:36:04.012Z,31.55
2022-09-28T02:38:31.283Z,30.58
2022-09-28T02:41:05.334Z,38.88
2022-09-28T02:43:41.135Z,33.83
2022-09-28T02:46:28.166Z,33.17
2022-09-28T02:49:25.757Z,34.65
2022-09-28T02:52:06.148Z,31.98
2022-09-28T02:54:51.049Z,32.17
2022-09-28T02:57:26.003Z,37.60
2022-09-28T02:59:58.430Z,38.92
2022-09-28T03:02:30.447Z,38.45
2022-09-28T03:05:35.916Z,35.60
2022-09-28T03:08:04.206Z,40.80
2022-09-28T03:10:39.148Z,39.92
2022-09-28T03:13:06.005Z,39.10
2022-09-28T03:15:34.315Z,38.25
2022-09-28T03:18:00.959Z,39.58
2022-09-28T03:20:28.665Z,44.88
2022-09-28T03:23:22.872Z,47.65
2022-09-28T03:25:41.573Z,44.28
2022-09-28T03:28:07.960Z,45.50
2022-09-28T03:30:34.333Z,43.08
2022-09-28T03:33:02.352Z,47.17
2022-09-28T03:35:28.736Z,50.10
2022-09-28T03:37:58.240Z,49.40
2022-09-28T03:40:24.732Z,50.95
2022-09-28T03:42:51.210Z,49.78
2022-09-28T03:45:17.767Z,56.20
2022-09-28T03:47:48.571Z,52.22
2022-09-28T03:50:15.894Z,54.25
2022-09-28T03:52:42.366Z,52.97
2022-09-28T03:55:09.067Z,53.85
2022-09-28T03:57:35.469Z,52.65
2022-09-28T04:00:02.935Z,50.40
2022-09-28T04:02:30.696Z,54.10
2022-09-28T04:04:57.212Z,51.60
2022-09-28T04:07:25.224Z,54.38
2022-09-28T04:09:54.319Z,53.08
2022-09-28T04:12:20.700Z,47.08
2022-09-28T04:14:47.089Z,54.92
2022-09-28T04:17:13.598Z,54.67
2022-09-28T04:19:40.023Z,55.97
2022-09-28T04:22:06.405Z,57.08
2022-09-28T04:24:33.626Z,56.90
2022-09-28T04:27:19.974Z,53.40
2022-09-28T04:29:46.360Z,56.33
2022-09-28T04:32:12.863Z,51.90
2022-09-28T04:34:43.269Z,50.72
2022-09-28T04:37:10.619Z,55.95
2022-09-28T04:39:36.993Z,55.10
2022-09-28T04:42:03.445Z,51.67
2022-09-28T04:44:29.968Z,49.20
2022-09-28T04:46:56.393Z,48.65
2022-09-28T04:49:24.374Z,53.97
2022-09-28T04:51:50.808Z,48.35
2022-09-28T04:54:17.302Z,48.65
2022-09-28T04:56:43.760Z,45.58
2022-09-28T04:59:10.248Z,44.67
2022-09-28T05:01:36.930Z,46.50
2022-09-28T05:04:03.461Z,50.00
2022-09-28T05:06:30.842Z,51.10
2022-09-28T05:08:57.476Z,47.13
2022-09-28T05:11:24.037Z,52.90
2022-09-28T05:13:50.535Z,50.60
2022-09-28T05:16:17.415Z,52.42
2022-09-28T05:18:43.863Z,55.85
2022-09-28T05:21:14.845Z,53.13
2022-09-28T05:26:08.080Z,54.28
2022-09-28T05:28:34.473Z,53.55
2022-09-28T05:31:02.884Z,55.78
2022-09-28T05:33:29.681Z,51.88
2022-09-28T05:36:00.916Z,57.92
2022-09-28T05:38:28.367Z,55.10
2022-09-28T05:40:54.801Z,55.25
2022-09-28T05:43:21.401Z,60.97
2022-09-28T05:45:52.915Z,62.22
2022-09-28T05:48:21.710Z,56.10
2022-09-28T05:50:52.378Z,52.53
2022-09-28T05:53:19.008Z,49.70
2022-09-28T05:55:45.588Z,57.20
2022-09-28T05:58:12.168Z,57.33
2022-09-28T06:00:38.680Z,53.70
2022-09-28T06:03:09.147Z,56.78
2022-09-28T06:05:36.809Z,52.63
2022-09-28T06:08:05.029Z,53.97
2022-09-28T06:10:31.917Z,51.28
2022-09-28T06:12:58.827Z,54.00
2022-09-28T06:15:28.700Z,50.55
2022-09-28T06:18:14.817Z,53.22
2022-09-28T06:20:41.912Z,49.75
2022-09-28T06:23:12.171Z,50.60
2022-09-28T06:25:39.116Z,48.30
2022-09-28T06:28:08.859Z,48.72
2022-09-28T06:30:38.023Z,52.33
2022-09-28T06:33:05.471Z,47.08
2022-09-28T06:35:32.517Z,45.58
2022-09-28T06:37:59.860Z,48.25
2022-09-28T06:40:27.396Z,47.40
2022-09-28T06:42:59.006Z,48.03
2022-09-28T06:45:26.890Z,41.33
2022-09-28T06:48:00.308Z,42.78
2022-09-28T06:50:35.864Z,42.53
2022-09-28T06:53:02.247Z,42.47
2022-09-28T06:55:29.077Z,45.72
2022-09-28T06:58:00.111Z,42.45
2022-09-28T07:02:54.227Z,40.75
2022-09-28T07:05:24.013Z,37.50
2022-09-28T07:07:50.411Z,37.53
2022-09-28T07:10:19.121Z,37.22
2022-09-28T07:12:47.741Z,42.67
2022-09-28T07:15:14.283Z,39.20
2022-09-28T07:17:55.869Z,39.67
2022-09-28T07:20:26.408Z,38.53
2022-09-28T07:22:59.218Z,38.28
2022-09-28T07:25:32.304Z,33.95
2022-09-28T07:27:59.757Z,33.15
2022-09-28T07:30:27.940Z,32.92
2022-09-28T07:32:54.890Z,32.90
2022-09-28T07:35:22.205Z,31.65
2022-09-28T07:37:48.589Z,34.28
2022-09-28T07:40:34.110Z,31.52
2022-09-28T07:43:05.124Z,30.50
2022-09-28T07:45:36.017Z,30.48
2022-09-28T07:48:03.576Z,30.90
2022-09-28T07:50:30.881Z,30.23
2022-09-28T07:52:57.731Z,30.15
2022-09-28T07:55:24.653Z,27.27
2022-09-28T07:58:00.947Z,25.83
2022-09-28T08:00:33.225Z,25.63
2022-09-28T08:03:03.737Z,28.77
2022-09-28T08:05:32.047Z,25.40
2022-09-28T08:07:59.604Z,25.50
2022-09-28T08:10:26.572Z,23.92
2022-09-28T08:12:59.274Z,22.95
2022-09-28T08:15:29.713Z,23.90
2022-09-28T08:17:59.103Z,22.27
2022-09-28T08:20:50.753Z,22.23
2022-09-28T08:23:18.011Z,23.63
2022-09-28T08:25:51.349Z,22.25
2022-09-28T08:28:18.027Z,20.90
2022-09-28T08:30:48.313Z,16.50
2022-09-28T08:33:17.478Z,18.95
2022-09-28T08:35:44.605Z,15.57
2022-09-28T08:38:11.017Z,17.83
2022-09-28T08:41:00.283Z,15.82
2022-09-28T08:43:51.273Z,23.77
2022-09-28T08:46:23.761Z,18.05
2022-09-28T08:51:52.934Z,13.82
2022-09-28T08:54:43.012Z,13.07
2022-09-28T08:57:19.285Z,10.88
2022-09-28T08:59:49.975Z,13.52
2022-09-28T09:02:49.058Z,10.57
2022-09-28T09:05:20.974Z,11.18
2022-09-28T09:08:05.798Z,14.02
2022-09-28T09:10:51.121Z,14.80
2022-09-28T09:13:51.689Z,14.38
2022-09-28T09:16:39.137Z,13.45
2022-09-28T09:19:16.345Z,14.55
2022-09-28T09:22:09.884Z,13.27
2022-09-28T09:24:49.801Z,17.20
2022-09-28T09:27:53.680Z,11.63
2022-09-28T09:30:22.398Z,13.15
2022-09-28T09:33:31.518Z,11.80
2022-09-28T09:36:20.137Z,11.70
2022-09-28T09:39:19.007Z,15.15
2022-09-28T09:42:04.238Z,13.38
2022-09-28T09:44:38.951Z,15.23
2022-09-28T09:47:09.850Z,14.13
2022-09-28T09:49:46.021Z,16.05
2022-09-28T09:52:23.769Z,16.25
2022-09-28T09:55:29.643Z,10.40
2022-09-28T09:58:10.127Z,12.55
2022-09-28T10:00:41.539Z,13.23
2022-09-28T10:03:37.119Z,11.63
2022-09-28T10:06:07.014Z,10.38
2022-09-28T10:08:59.754Z,10.77
2022-09-28T10:11:29.541Z,9.13
2022-09-28T10:13:56.801Z,11.13
2022-09-28T10:16:24.061Z,11.35
2022-09-28T10:18:50.599Z,11.02
2022-09-28T10:21:20.428Z,9.80
2022-09-28T10:23:51.599Z,16.30
2022-09-28T10:26:28.256Z,11.15
2022-09-28T10:29:01.397Z,13.45
2022-09-28T10:31:44.000Z,10.27
2022-09-28T10:34:14.100Z,11.60
2022-09-28T10:37:01.500Z,13.02
2022-09-28T10:39:32.419Z,10.38
2022-09-28T10:44:28.683Z,8.50
2022-09-28T10:46:57.139Z,8.95
2022-09-28T10:49:24.798Z,7.05
2022-09-28T10:51:54.514Z,8.05
2022-09-28T10:54:23.153Z,7.88
2022-09-28T10:56:50.832Z,8.30
2022-09-28T10:59:24.598Z,6.25
2022-09-28T11:02:01.707Z,5.25
2022-09-28T11:04:30.667Z,3.63
2022-09-28T11:09:37.735Z,6.07
2022-09-28T11:12:06.189Z,4.82
2022-09-28T11:14:38.380Z,5.93
2022-09-28T11:17:44.949Z,5.00
2022-09-28T11:20:28.186Z,5.40
2022-09-28T11:23:00.008Z,6.32
2022-09-28T11:25:28.091Z,6.32
2022-09-28T11:27:54.373Z,5.93
2022-09-28T11:30:44.743Z,7.05
2022-09-28T11:33:22.536Z,10.00
2022-09-28T11:36:12.195Z,4.82
2022-09-28T11:39:08.181Z,6.10
2022-09-28T11:41:55.930Z,9.98
2022-09-28T11:44:34.471Z,9.48
2022-09-28T11:47:09.903Z,7.78
2022-09-28T11:49:50.362Z,8.05
2022-09-28T11:52:22.840Z,10.15
2022-09-28T11:54:55.705Z,7.43
2022-09-28T11:57:25.348Z,8.90
2022-09-28T11:59:54.593Z,10.65
2022-09-28T12:02:24.705Z,9.70
2022-09-28T12:04:55.843Z,11.25
2022-09-28T12:07:38.425Z,10.38
2022-09-28T12:10:09.489Z,9.93
2022-09-28T12:12:45.474Z,16.00
2022-09-28T12:15:19.179Z,9.52
2022-09-28T12:17:50.540Z,10.50
2022-09-28T12:20:27.471Z,12.90
2022-09-28T12:23:00.029Z,9.95
2022-09-28T12:25:28.307Z,9.25
2022-09-28T12:27:58.522Z,9.13
2022-09-28T12:30:25.631Z,8.57
2022-09-28T12:33:09.110Z,7.30
2022-09-28T12:35:50.699Z,8.30
2022-09-28T12:38:38.475Z,9.20
2022-09-28T12:41:17.039Z,9.70
2022-09-28T12:43:43.371Z,8.57
2022-09-28T12:46:13.191Z,8.07
2022-09-28T12:52:15.325Z,7.30
2022-09-28T12:54:53.253Z,7.82
2022-09-28T12:57:48.815Z,6.80
2022-09-28T13:00:18.434Z,9.13
2022-09-28T13:03:05.281Z,9.88
2022-09-28T13:06:00.439Z,8.68
2022-09-28T13:08:32.892Z,6.68
2022-09-28T13:11:08.505Z,5.72
2022-09-28T13:14:03.321Z,8.02
2022-09-28T13:16:41.521Z,6.80
2022-09-28T13:19:16.797Z,4.93
2022-09-28T13:22:20.944Z,9.43
2022-09-28T13:24:48.803Z,6.68
2022-09-28T13:27:19.377Z,6.30
2022-09-28T13:29:49.938Z,6.45
2022-09-28T13:32:17.655Z,5.57
2022-09-28T13:34:48.007Z,6.55
2022-09-28T13:37:16.878Z,9.23
2022-09-28T13:39:51.791Z,6.65
2022-09-28T13:42:24.011Z,7.82
2022-09-28T13:44:54.051Z,6.95
2022-09-28T13:47:32.414Z,10.47
2022-09-28T13:50:43.903Z,6.68
2022-09-28T13:53:44.336Z,8.40
2022-09-28T13:56:41.738Z,16.00
2022-09-28T13:59:27.677Z,8.43
2022-09-28T14:02:06.905Z,5.80
2022-09-28T14:05:00.885Z,5.88
2022-09-28T14:07:36.407Z,7.95
2022-09-28T14:10:24.500Z,8.00
2022-09-28T14:12:52.879Z,9.40
2022-09-28T14:15:28.654Z,8.40
2022-09-28T14:18:24.133Z,4.70
2022-09-28T14:21:00.277Z,11.18
2022-09-28T14:23:56.340Z,11.15
2022-09-28T14:26:41.474Z,9.63
2022-09-28T14:29:29.309Z,11.60
2022-09-28T14:31:58.221Z,6.50
2022-09-28T14:34:41.599Z,6.78
2022-09-28T14:37:56.480Z,7.75
2022-09-28T14:41:12.586Z,8.68
2022-09-28T14:43:44.906Z,9.05
2022-09-28T14:46:11.292Z,12.50
2022-09-28T14:48:55.032Z,9.55
2022-09-28T14:51:27.498Z,13.05
2022-09-28T14:53:56.075Z,11.52
2022-09-28T14:56:22.485Z,10.32
2022-09-28T14:58:54.990Z,10.77
2022-09-28T15:01:24.555Z,13.05
2022-09-28T15:03:54.482Z,13.75
2022-09-28T15:06:25.044Z,11.05
2022-09-28T15:08:53.786Z,12.05
2022-09-28T15:11:23.588Z,12.73
2022-09-28T15:13:53.822Z,12.57
2022-09-28T15:16:23.848Z,12.68
2022-09-28T15:18:59.742Z,13.02
2022-09-28T15:21:33.828Z,13.18
2022-09-28T15:24:00.361Z,8.93
2022-09-28T15:26:32.248Z,7.57
2022-09-28T15:28:59.496Z,8.00
2022-09-28T15:31:27.234Z,12.60
2022-09-28T15:34:12.304Z,8.10
2022-09-28T15:36:41.115Z,6.50
2022-09-28T15:39:14.743Z,6.75
2022-09-28T15:41:46.020Z,7.18
2022-09-28T15:44:12.339Z,8.55
2022-09-28T15:46:44.082Z,11.38
2022-09-28T15:49:38.806Z,9.23
2022-09-28T15:52:05.845Z,11.30
2022-09-28T15:54:38.788Z,8.98
2022-09-28T15:57:05.236Z,8.13
2022-09-28T15:59:39.650Z,9.60
2022-09-28T16:02:24.046Z,7.43
2022-09-28T16:04:55.434Z,7.88
2022-09-28T16:07:27.976Z,6.22
2022-09-28T16:10:00.483Z,8.70
2022-09-28T16:12:31.339Z,5.60
2022-09-28T16:14:59.611Z,6.80
2022-09-28T16:17:35.326Z,6.85
2022-09-28T16:20:20.918Z,7.80
2022-09-28T16:22:47.830Z,6.53
2022-09-28T16:25:24.155Z,8.20
2022-09-28T16:27:52.699Z,8.63
2022-09-28T16:30:28.718Z,7.25
2022-09-28T16:33:06.014Z,7.05
2022-09-28T16:35:35.416Z,6.95
2022-09-28T16:38:12.250Z,4.32
2022-09-28T16:40:40.370Z,4.85
2022-09-28T16:43:08.754Z,8.30
2022-09-28T16:45:35.385Z,4.68
2022-09-28T16:48:03.021Z,5.68
2022-09-28T16:50:29.410Z,4.75
2022-09-28T16:53:27.841Z,3.88
2022-09-28T16:55:54.237Z,3.22
2022-09-28T16:58:22.206Z,4.95
2022-09-28T17:00:48.608Z,3.53
2022-09-28T17:03:17.223Z,6.38
2022-09-28T17:05:44.112Z,5.50
2022-09-28T17:08:17.376Z,5.60
2022-09-28T17:11:13.532Z,9.65
2022-09-28T17:13:35.911Z,6.65
2022-09-28T17:16:10.252Z,7.53
2022-09-28T17:18:39.067Z,8.32
2022-09-28T17:21:09.206Z,10.00
2022-09-28T17:23:35.624Z,9.63
2022-09-28T17:26:02.218Z,9.88
2022-09-28T17:28:32.163Z,9.48
2022-09-28T17:30:58.617Z,10.48
2022-09-28T17:33:25.201Z,7.95
2022-09-28T17:35:52.760Z,10.43
2022-09-28T17:38:19.138Z,9.05
2022-09-28T17:40:46.848Z,10.65
2022-09-28T17:43:13.297Z,10.05
2022-09-28T17:45:41.035Z,11.25
2022-09-28T17:48:11.212Z,9.10
2022-09-28T17:50:39.240Z,10.97
2022-09-28T17:53:07.602Z,15.55
2022-09-28T17:55:36.291Z,13.30
2022-09-28T17:58:16.684Z,12.98
2022-09-28T18:00:47.078Z,17.65
2022-09-28T18:03:26.360Z,15.77
2022-09-28T18:06:07.135Z,13.52
2022-09-28T18:08:34.730Z,13.45
2022-09-28T18:11:07.524Z,12.73
2022-09-28T18:13:38.252Z,13.68
2022-09-28T18:16:07.485Z,16.52
2022-09-28T18:18:36.837Z,41.20
2022-09-28T18:21:06.286Z,51.67
2022-09-28T18:23:39.923Z,23.05
2022-09-28T18:26:15.314Z,22.52
2022-09-28T18:28:47.662Z,18.92
2022-09-28T18:31:17.825Z,63.47
2022-09-28T18:33:44.493Z,34.60
2022-09-28T18:36:19.588Z,35.97
2022-09-28T18:38:46.327Z,33.05
2022-09-28T18:41:17.851Z,30.23
2022-09-28T18:43:50.747Z,32.20
2022-09-28T18:46:18.256Z,24.33
2022-09-28T18:48:44.849Z,32.70
2022-09-28T18:51:14.002Z,37.85
2022-09-28T18:53:40.723Z,31.10
2022-09-28T18:56:08.474Z,23.80
2022-09-28T18:58:36.376Z,27.10
2022-09-28T19:01:29.418Z,23.92
2022-09-28T19:03:59.981Z,27.63
2022-09-28T19:06:26.415Z,22.47
2022-09-28T19:08:55.403Z,24.65
2022-09-28T19:11:22.290Z,23.30
2022-09-28T19:13:48.684Z,26.45
2022-09-28T19:16:24.015Z,24.05
2022-09-28T19:18:52.320Z,27.65
2022-09-28T19:21:19.309Z,27.23
2022-09-28T19:23:49.304Z,23.38
2022-09-28T19:26:18.456Z,23.10
2022-09-28T19:28:44.863Z,31.08
2022-09-28T19:31:11.960Z,23.08
2022-09-28T19:33:39.394Z,25.13
2022-09-28T19:36:08.790Z,21.70
2022-09-28T19:38:36.553Z,25.00
2022-09-28T19:41:09.379Z,23.73
2022-09-28T19:43:36.203Z,20.88
2022-09-28T19:46:04.994Z,25.50
2022-09-28T19:48:32.269Z,28.85
2022-09-28T19:51:00.994Z,30.85
2022-09-28T19:53:30.257Z,26.55
2022-09-28T19:55:57.880Z,25.90
2022-09-28T19:58:28.985Z,24.17
2022-09-28T20:03:21.753Z,25.58
2022-09-28T20:05:49.294Z,30.58
2022-09-28T20:08:16.272Z,27.13
2022-09-28T20:10:54.459Z,25.88
2022-09-28T20:13:21.482Z,27.60
2022-09-28T20:15:48.237Z,23.88
2022-09-28T20:18:14.929Z,25.58
2022-09-28T20:20:42.512Z,24.52
2022-09-28T20:23:09.393Z,24.25
2022-09-28T20:25:35.786Z,25.25
2022-09-28T20:28:02.234Z,23.85
2022-09-28T20:30:28.602Z,19.73
2022-09-28T20:32:55.049Z,24.08
2022-09-28T20:35:32.267Z,24.80
2022-09-28T20:38:07.691Z,25.45
2022-09-28T20:40:35.156Z,23.52
2022-09-28T20:43:01.666Z,27.13
2022-09-28T20:45:28.068Z,22.75
2022-09-28T20:47:54.457Z,25.70
2022-09-28T20:50:22.003Z,23.50
2022-09-28T20:52:48.492Z,22.85
2022-09-28T20:55:14.996Z,28.65
2022-09-28T20:57:41.403Z,25.67
2022-09-28T21:00:08.877Z,25.35
2022-09-28T21:02:35.268Z,30.85
2022-09-28T21:05:01.843Z,34.70
2022-09-28T21:07:28.222Z,36.72
2022-09-28T21:09:54.644Z,40.85
2022-09-28T21:12:21.113Z,36.42
2022-09-28T21:14:47.503Z,40.58
2022-09-28T21:17:13.903Z,39.60
2022-09-28T21:19:40.284Z,35.47
2022-09-28T21:22:07.511Z,33.70
2022-09-28T21:24:34.019Z,46.35
2022-09-28T21:27:00.414Z,33.25
2022-09-28T21:29:26.921Z,32.50
2022-09-28T21:31:53.376Z,31.15
2022-09-28T21:34:20.808Z,37.90
2022-09-28T21:36:54.628Z,32.38
2022-09-28T21:39:21.188Z,32.85
2022-09-28T21:41:48.014Z,33.05
2022-09-28T21:44:14.507Z,33.67
2022-09-28T21:46:41.953Z,35.83
2022-09-28T21:49:08.596Z,37.85
2022-09-28T21:51:35.812Z,35.15
2022-09-28T21:54:02.202Z,39.85
2022-09-28T21:56:28.628Z,39.95
2022-09-28T21:58:55.401Z,32.78
2022-09-28T22:01:23.607Z,37.85
2022-09-28T22:03:55.009Z,36.75
2022-09-28T22:06:22.816Z,45.05
2022-09-28T22:08:49.781Z,41.63
2022-09-28T22:11:18.706Z,38.42
2022-09-28T22:13:46.375Z,46.30
2022-09-28T22:16:14.352Z,43.15
2022-09-28T22:18:40.972Z,48.88
2022-09-28T22:21:15.297Z,49.15
2022-09-28T22:23:42.167Z,51.78
2022-09-28T22:26:17.647Z,41.05
2022-09-28T22:28:49.350Z,41.58
2022-09-28T22:31:16.791Z,43.03
2022-09-28T22:33:43.686Z,43.25
2022-09-28T22:36:10.637Z,39.40
2022-09-28T22:38:37.592Z,45.78
2022-09-28T22:41:04.151Z,40.35
2022-09-28T22:43:31.088Z,48.40
2022-09-28T22:46:08.895Z,43.70
2022-09-28T22:48:35.771Z,40.85
2022-09-28T22:51:02.819Z,47.47
2022-09-28T22:53:29.699Z,39.88
2022-09-28T22:55:56.631Z,39.50
2022-09-28T22:58:23.579Z,40.22
2022-09-28T23:00:50.091Z,37.63
2022-09-28T23:03:17.594Z,43.85
2022-09-28T23:05:54.453Z,46.53
2022-09-28T23:08:21.688Z,40.45
2022-09-28T23:10:48.096Z,48.13
2022-09-28T23:13:14.633Z,52.17
2022-09-28T23:15:41.226Z,50.50
2022-09-28T23:18:08.580Z,45.20
2022-09-28T23:20:36.473Z,50.58
2022-09-28T23:23:03.045Z,50.92
2022-09-28T23:25:29.505Z,49.65
2022-09-28T23:27:55.918Z,50.03
2022-09-28T23:30:24.677Z,50.30
2022-09-28T23:32:54.237Z,51.63
2022-09-28T23:35:20.840Z,49.50
2022-09-28T23:37:51.418Z,50.03
2022-09-28T23:40:18.146Z,44.42
2022-09-28T23:42:44.638Z,43.78
2022-09-28T23:45:11.371Z,51.53
2022-09-28T23:47:38.124Z,53.90
2022-09-28T23:50:05.771Z,43.67
2022-09-28T23:52:32.147Z,47.70
2022-09-28T23:54:58.559Z,44.40
2022-09-28T23:57:25.513Z,47.72
2022-09-28T23:59:51.909Z,44.15
